sensor_id;sensor_type;location;lat;lon;timestamp;P1;durP1;ratioP1;P2;durP2;ratioP2
71042;SDS011;58696;52.134;5.500;2024-02-26T00:01:36;2.35;;;2.15;;
71042;SDS011;58696;52.134;5.500;2024-02-26T00:04:05;5.40;;;2.30;;
71042;SDS011;58696;52.134;5.500;2024-02-26T00:06:35;3.25;;;2.28;;
71042;SDS011;58696;52.134;5.500;2024-02-26T00:09:02;2.65;;;2.45;;
71042;SDS011;58696;52.134;5.500;2024-02-26T00:11:32;2.47;;;2.20;;
71042;SDS011;58696;52.134;5.500;2024-02-26T00:14:00;7.18;;;2.10;;
71042;SDS011;58696;52.134;5.500;2024-02-26T00:16:27;3.40;;;2.28;;
71042;SDS011;58696;52.134;5.500;2024-02-26T00:18:56;4.55;;;2.60;;
71042;SDS011;58696;52.134;5.500;2024-02-26T00:21:26;4.28;;;2.97;;
71042;SDS011;58696;52.134;5.500;2024-02-26T00:23:52;3.70;;;2.80;;
71042;SDS011;58696;52.134;5.500;2024-02-26T00:26:22;3.28;;;2.80;;
71042;SDS011;58696;52.134;5.500;2024-02-26T00:28:51;4.75;;;2.67;;
71042;SDS011;58696;52.134;5.500;2024-02-26T00:31:17;4.47;;;3.13;;
71042;SDS011;58696;52.134;5.500;2024-02-26T00:33:44;3.00;;;2.60;;
71042;SDS011;58696;52.134;5.500;2024-02-26T00:36:10;7.00;;;2.75;;
71042;SDS011;58696;52.134;5.500;2024-02-26T00:38:37;4.22;;;2.60;;
71042;SDS011;58696;52.134;5.500;2024-02-26T00:41:04;4.68;;;2.95;;
71042;SDS011;58696;52.134;5.500;2024-02-26T00:43:33;4.82;;;2.35;;
71042;SDS011;58696;52.134;5.500;2024-02-26T00:45:59;2.88;;;2.60;;
71042;SDS011;58696;52.134;5.500;2024-02-26T00:48:26;5.53;;;2.78;;
71042;SDS011;58696;52.134;5.500;2024-02-26T00:50:53;5.47;;;3.38;;
71042;SDS011;58696;52.134;5.500;2024-02-26T00:53:19;3.45;;;2.75;;
71042;SDS011;58696;52.134;5.500;2024-02-26T00:55:48;2.97;;;2.63;;
71042;SDS011;58696;52.134;5.500;2024-02-26T00:58:15;4.22;;;2.92;;
71042;SDS011;58696;52.134;5.500;2024-02-26T01:00:45;3.80;;;2.80;;
71042;SDS011;58696;52.134;5.500;2024-02-26T01:03:11;2.78;;;2.55;;
71042;SDS011;58696;52.134;5.500;2024-02-26T01:05:41;3.30;;;2.85;;
71042;SDS011;58696;52.134;5.500;2024-02-26T01:08:08;6.35;;;3.22;;
71042;SDS011;58696;52.134;5.500;2024-02-26T01:10:41;4.20;;;2.80;;
71042;SDS011;58696;52.134;5.500;2024-02-26T01:13:08;4.22;;;2.53;;
71042;SDS011;58696;52.134;5.500;2024-02-26T01:15:36;2.90;;;2.70;;
71042;SDS011;58696;52.134;5.500;2024-02-26T01:18:02;4.18;;;3.13;;
71042;SDS011;58696;52.134;5.500;2024-02-26T01:20:29;3.33;;;3.03;;
71042;SDS011;58696;52.134;5.500;2024-02-26T01:23:01;4.78;;;3.25;;
71042;SDS011;58696;52.134;5.500;2024-02-26T01:25:30;4.00;;;3.13;;
71042;SDS011;58696;52.134;5.500;2024-02-26T01:27:56;3.40;;;3.10;;
71042;SDS011;58696;52.134;5.500;2024-02-26T01:30:25;3.28;;;3.00;;
71042;SDS011;58696;52.134;5.500;2024-02-26T01:32:52;4.70;;;3.15;;
71042;SDS011;58696;52.134;5.500;2024-02-26T01:35:21;3.95;;;3.10;;
71042;SDS011;58696;52.134;5.500;2024-02-26T01:37:48;4.85;;;3.25;;
71042;SDS011;58696;52.134;5.500;2024-02-26T01:40:15;3.50;;;3.20;;
71042;SDS011;58696;52.134;5.500;2024-02-26T01:42:45;4.43;;;3.22;;
71042;SDS011;58696;52.134;5.500;2024-02-26T01:45:15;5.22;;;3.08;;
71042;SDS011;58696;52.134;5.500;2024-02-26T01:47:51;4.93;;;3.50;;
71042;SDS011;58696;52.134;5.500;2024-02-26T01:50:19;3.40;;;3.10;;
71042;SDS011;58696;52.134;5.500;2024-02-26T01:52:46;4.18;;;3.55;;
71042;SDS011;58696;52.134;5.500;2024-02-26T01:55:17;3.50;;;3.13;;
71042;SDS011;58696;52.134;5.500;2024-02-26T01:57:47;3.58;;;3.28;;
71042;SDS011;58696;52.134;5.500;2024-02-26T02:00:16;3.45;;;3.15;;
71042;SDS011;58696;52.134;5.500;2024-02-26T02:05:14;3.67;;;3.05;;
71042;SDS011;58696;52.134;5.500;2024-02-26T02:07:43;3.85;;;3.40;;
71042;SDS011;58696;52.134;5.500;2024-02-26T02:10:15;3.72;;;3.38;;
71042;SDS011;58696;52.134;5.500;2024-02-26T02:12:49;3.88;;;3.42;;
71042;SDS011;58696;52.134;5.500;2024-02-26T02:15:18;9.57;;;3.40;;
71042;SDS011;58696;52.134;5.500;2024-02-26T02:17:46;4.07;;;3.40;;
71042;SDS011;58696;52.134;5.500;2024-02-26T02:20:16;3.92;;;3.58;;
71042;SDS011;58696;52.134;5.500;2024-02-26T02:22:45;3.78;;;3.08;;
71042;SDS011;58696;52.134;5.500;2024-02-26T02:25:17;5.65;;;3.33;;
71042;SDS011;58696;52.134;5.500;2024-02-26T02:27:44;8.23;;;3.20;;
71042;SDS011;58696;52.134;5.500;2024-02-26T02:30:15;3.40;;;3.10;;
71042;SDS011;58696;52.134;5.500;2024-02-26T02:32:49;3.70;;;3.40;;
71042;SDS011;58696;52.134;5.500;2024-02-26T02:35:18;3.67;;;3.30;;
71042;SDS011;58696;52.134;5.500;2024-02-26T02:37:44;3.38;;;3.05;;
71042;SDS011;58696;52.134;5.500;2024-02-26T02:40:11;5.20;;;3.22;;
71042;SDS011;58696;52.134;5.500;2024-02-26T02:42:40;4.65;;;3.00;;
71042;SDS011;58696;52.134;5.500;2024-02-26T02:45:09;3.95;;;3.17;;
71042;SDS011;58696;52.134;5.500;2024-02-26T02:47:41;4.22;;;3.30;;
71042;SDS011;58696;52.134;5.500;2024-02-26T02:50:10;4.38;;;3.20;;
71042;SDS011;58696;52.134;5.500;2024-02-26T02:52:39;3.67;;;3.28;;
71042;SDS011;58696;52.134;5.500;2024-02-26T02:55:06;5.00;;;3.85;;
71042;SDS011;58696;52.134;5.500;2024-02-26T02:57:32;4.03;;;3.53;;
71042;SDS011;58696;52.134;5.500;2024-02-26T02:59:59;4.10;;;3.30;;
71042;SDS011;58696;52.134;5.500;2024-02-26T03:02:26;4.32;;;3.58;;
71042;SDS011;58696;52.134;5.500;2024-02-26T03:04:58;3.83;;;3.53;;
71042;SDS011;58696;52.134;5.500;2024-02-26T03:07:24;8.18;;;3.88;;
71042;SDS011;58696;52.134;5.500;2024-02-26T03:09:53;4.18;;;3.47;;
71042;SDS011;58696;52.134;5.500;2024-02-26T03:12:20;5.35;;;3.92;;
71042;SDS011;58696;52.134;5.500;2024-02-26T03:14:46;4.20;;;3.63;;
71042;SDS011;58696;52.134;5.500;2024-02-26T03:17:13;4.72;;;4.13;;
71042;SDS011;58696;52.134;5.500;2024-02-26T03:19:40;5.63;;;4.25;;
71042;SDS011;58696;52.134;5.500;2024-02-26T03:22:06;4.38;;;3.88;;
71042;SDS011;58696;52.134;5.500;2024-02-26T03:24:35;4.68;;;3.70;;
71042;SDS011;58696;52.134;5.500;2024-02-26T03:27:04;5.10;;;4.60;;
71042;SDS011;58696;52.134;5.500;2024-02-26T03:29:36;5.50;;;3.90;;
71042;SDS011;58696;52.134;5.500;2024-02-26T03:32:04;5.63;;;4.00;;
71042;SDS011;58696;52.134;5.500;2024-02-26T03:34:31;6.05;;;4.50;;
71042;SDS011;58696;52.134;5.500;2024-02-26T03:37:00;5.47;;;4.57;;
71042;SDS011;58696;52.134;5.500;2024-02-26T03:39:27;5.70;;;4.90;;
71042;SDS011;58696;52.134;5.500;2024-02-26T03:41:56;5.28;;;4.60;;
71042;SDS011;58696;52.134;5.500;2024-02-26T03:44:23;5.93;;;4.97;;
71042;SDS011;58696;52.134;5.500;2024-02-26T03:46:50;5.55;;;4.80;;
71042;SDS011;58696;52.134;5.500;2024-02-26T03:49:16;6.32;;;4.90;;
71042;SDS011;58696;52.134;5.500;2024-02-26T03:51:43;8.20;;;5.03;;
71042;SDS011;58696;52.134;5.500;2024-02-26T03:54:09;4.95;;;4.30;;
71042;SDS011;58696;52.134;5.500;2024-02-26T03:56:37;8.35;;;5.25;;
71042;SDS011;58696;52.134;5.500;2024-02-26T03:59:03;6.18;;;5.57;;
71042;SDS011;58696;52.134;5.500;2024-02-26T04:01:35;6.63;;;5.22;;
71042;SDS011;58696;52.134;5.500;2024-02-26T04:04:03;6.28;;;5.68;;
71042;SDS011;58696;52.134;5.500;2024-02-26T04:06:35;6.32;;;4.95;;
71042;SDS011;58696;52.134;5.500;2024-02-26T04:09:04;5.72;;;4.80;;
71042;SDS011;58696;52.134;5.500;2024-02-26T04:11:33;4.78;;;4.28;;
71042;SDS011;58696;52.134;5.500;2024-02-26T04:14:02;6.30;;;4.47;;
71042;SDS011;58696;52.134;5.500;2024-02-26T04:16:34;10.30;;;5.82;;
71042;SDS011;58696;52.134;5.500;2024-02-26T04:19:04;6.35;;;4.82;;
71042;SDS011;58696;52.134;5.500;2024-02-26T04:21:32;5.13;;;4.57;;
71042;SDS011;58696;52.134;5.500;2024-02-26T04:24:01;6.68;;;4.70;;
71042;SDS011;58696;52.134;5.500;2024-02-26T04:26:29;5.00;;;4.50;;
71042;SDS011;58696;52.134;5.500;2024-02-26T04:28:59;4.95;;;4.28;;
71042;SDS011;58696;52.134;5.500;2024-02-26T04:31:27;5.05;;;4.57;;
71042;SDS011;58696;52.134;5.500;2024-02-26T04:33:54;5.38;;;4.35;;
71042;SDS011;58696;52.134;5.500;2024-02-26T04:36:21;7.07;;;4.57;;
71042;SDS011;58696;52.134;5.500;2024-02-26T04:38:48;4.78;;;4.05;;
71042;SDS011;58696;52.134;5.500;2024-02-26T04:41:17;6.90;;;4.25;;
71042;SDS011;58696;52.134;5.500;2024-02-26T04:43:46;4.70;;;4.18;;
71042;SDS011;58696;52.134;5.500;2024-02-26T04:46:16;5.53;;;4.82;;
71042;SDS011;58696;52.134;5.500;2024-02-26T04:48:42;6.88;;;4.72;;
71042;SDS011;58696;52.134;5.500;2024-02-26T04:51:13;4.93;;;4.43;;
71042;SDS011;58696;52.134;5.500;2024-02-26T04:53:44;5.10;;;4.57;;
71042;SDS011;58696;52.134;5.500;2024-02-26T04:56:16;6.50;;;4.50;;
71042;SDS011;58696;52.134;5.500;2024-02-26T04:58:42;4.95;;;4.13;;
71042;SDS011;58696;52.134;5.500;2024-02-26T05:01:09;8.88;;;4.28;;
71042;SDS011;58696;52.134;5.500;2024-02-26T05:03:43;5.88;;;4.55;;
71042;SDS011;58696;52.134;5.500;2024-02-26T05:06:10;5.60;;;4.63;;
71042;SDS011;58696;52.134;5.500;2024-02-26T05:08:39;5.05;;;4.55;;
71042;SDS011;58696;52.134;5.500;2024-02-26T05:11:06;5.40;;;4.20;;
71042;SDS011;58696;52.134;5.500;2024-02-26T05:13:35;6.28;;;4.80;;
71042;SDS011;58696;52.134;5.500;2024-02-26T05:16:04;8.05;;;5.03;;
71042;SDS011;58696;52.134;5.500;2024-02-26T05:18:31;6.30;;;5.15;;
71042;SDS011;58696;52.134;5.500;2024-02-26T05:20:57;5.70;;;5.10;;
71042;SDS011;58696;52.134;5.500;2024-02-26T05:23:26;8.00;;;4.80;;
71042;SDS011;58696;52.134;5.500;2024-02-26T05:25:53;5.82;;;5.03;;
71042;SDS011;58696;52.134;5.500;2024-02-26T05:28:19;7.85;;;5.22;;
71042;SDS011;58696;52.134;5.500;2024-02-26T05:30:47;5.67;;;4.90;;
71042;SDS011;58696;52.134;5.500;2024-02-26T05:33:16;10.85;;;4.78;;
71042;SDS011;58696;52.134;5.500;2024-02-26T05:35:47;5.43;;;4.85;;
71042;SDS011;58696;52.134;5.500;2024-02-26T05:38:13;8.55;;;5.32;;
71042;SDS011;58696;52.134;5.500;2024-02-26T05:40:40;7.57;;;5.20;;
71042;SDS011;58696;52.134;5.500;2024-02-26T05:43:09;6.57;;;5.88;;
71042;SDS011;58696;52.134;5.500;2024-02-26T05:45:44;6.70;;;5.38;;
71042;SDS011;58696;52.134;5.500;2024-02-26T05:48:10;6.47;;;5.15;;
71042;SDS011;58696;52.134;5.500;2024-02-26T05:50:39;6.70;;;5.57;;
71042;SDS011;58696;52.134;5.500;2024-02-26T05:53:06;7.18;;;5.75;;
71042;SDS011;58696;52.134;5.500;2024-02-26T05:55:36;8.35;;;5.75;;
71042;SDS011;58696;52.134;5.500;2024-02-26T05:58:05;7.78;;;5.93;;
71042;SDS011;58696;52.134;5.500;2024-02-26T06:00:32;7.68;;;5.53;;
71042;SDS011;58696;52.134;5.500;2024-02-26T06:03:01;10.15;;;5.70;;
71042;SDS011;58696;52.134;5.500;2024-02-26T06:05:28;8.77;;;5.55;;
71042;SDS011;58696;52.134;5.500;2024-02-26T06:07:55;8.63;;;6.03;;
71042;SDS011;58696;52.134;5.500;2024-02-26T06:10:21;8.38;;;5.82;;
71042;SDS011;58696;52.134;5.500;2024-02-26T06:12:48;7.22;;;5.38;;
71042;SDS011;58696;52.134;5.500;2024-02-26T06:15:14;9.02;;;6.03;;
71042;SDS011;58696;52.134;5.500;2024-02-26T06:17:44;9.70;;;5.97;;
71042;SDS011;58696;52.134;5.500;2024-02-26T06:20:13;12.02;;;6.63;;
71042;SDS011;58696;52.134;5.500;2024-02-26T06:22:40;8.07;;;6.25;;
71042;SDS011;58696;52.134;5.500;2024-02-26T06:25:10;10.60;;;6.27;;
71042;SDS011;58696;52.134;5.500;2024-02-26T06:27:39;6.85;;;5.30;;
71042;SDS011;58696;52.134;5.500;2024-02-26T06:30:05;9.23;;;6.50;;
71042;SDS011;58696;52.134;5.500;2024-02-26T06:32:33;8.33;;;6.23;;
71042;SDS011;58696;52.134;5.500;2024-02-26T06:34:59;9.38;;;6.82;;
71042;SDS011;58696;52.134;5.500;2024-02-26T06:37:33;7.68;;;6.22;;
71042;SDS011;58696;52.134;5.500;2024-02-26T06:40:00;10.32;;;6.53;;
71042;SDS011;58696;52.134;5.500;2024-02-26T06:42:30;8.73;;;6.32;;
71042;SDS011;58696;52.134;5.500;2024-02-26T06:44:59;12.48;;;8.07;;
71042;SDS011;58696;52.134;5.500;2024-02-26T06:47:38;8.05;;;6.47;;
71042;SDS011;58696;52.134;5.500;2024-02-26T06:50:05;9.45;;;6.68;;
71042;SDS011;58696;52.134;5.500;2024-02-26T06:52:34;9.25;;;6.55;;
71042;SDS011;58696;52.134;5.500;2024-02-26T06:55:01;9.02;;;7.07;;
71042;SDS011;58696;52.134;5.500;2024-02-26T06:57:34;11.93;;;7.32;;
71042;SDS011;58696;52.134;5.500;2024-02-26T07:00:01;12.52;;;7.38;;
71042;SDS011;58696;52.134;5.500;2024-02-26T07:02:30;9.43;;;7.60;;
71042;SDS011;58696;52.134;5.500;2024-02-26T07:05:01;10.90;;;7.80;;
71042;SDS011;58696;52.134;5.500;2024-02-26T07:07:29;11.13;;;7.43;;
71042;SDS011;58696;52.134;5.500;2024-02-26T07:09:57;11.80;;;8.10;;
71042;SDS011;58696;52.134;5.500;2024-02-26T07:12:24;11.68;;;8.73;;
71042;SDS011;58696;52.134;5.500;2024-02-26T07:14:53;12.95;;;8.32;;
71042;SDS011;58696;52.134;5.500;2024-02-26T07:17:19;12.38;;;8.32;;
71042;SDS011;58696;52.134;5.500;2024-02-26T07:19:46;14.38;;;9.35;;
71042;SDS011;58696;52.134;5.500;2024-02-26T07:22:15;15.73;;;9.40;;
71042;SDS011;58696;52.134;5.500;2024-02-26T07:24:41;15.55;;;9.23;;
71042;SDS011;58696;52.134;5.500;2024-02-26T07:27:10;16.02;;;9.13;;
71042;SDS011;58696;52.134;5.500;2024-02-26T07:29:38;10.93;;;8.30;;
71042;SDS011;58696;52.134;5.500;2024-02-26T07:32:06;12.90;;;8.48;;
71042;SDS011;58696;52.134;5.500;2024-02-26T07:34:37;12.98;;;9.18;;
71042;SDS011;58696;52.134;5.500;2024-02-26T07:37:09;15.10;;;9.88;;
71042;SDS011;58696;52.134;5.500;2024-02-26T07:39:35;12.95;;;9.63;;
71042;SDS011;58696;52.134;5.500;2024-02-26T07:42:03;15.77;;;10.20;;
71042;SDS011;58696;52.134;5.500;2024-02-26T07:44:33;16.58;;;9.10;;
71042;SDS011;58696;52.134;5.500;2024-02-26T07:47:00;14.30;;;10.18;;
71042;SDS011;58696;52.134;5.500;2024-02-26T07:49:29;14.95;;;10.38;;
71042;SDS011;58696;52.134;5.500;2024-02-26T07:51:55;15.05;;;10.48;;
71042;SDS011;58696;52.134;5.500;2024-02-26T07:54:24;14.77;;;9.68;;
71042;SDS011;58696;52.134;5.500;2024-02-26T07:56:51;16.17;;;10.18;;
71042;SDS011;58696;52.134;5.500;2024-02-26T07:59:18;16.08;;;11.07;;
71042;SDS011;58696;52.134;5.500;2024-02-26T08:01:48;17.67;;;10.30;;
71042;SDS011;58696;52.134;5.500;2024-02-26T08:04:23;14.65;;;10.35;;
71042;SDS011;58696;52.134;5.500;2024-02-26T08:06:55;19.80;;;13.02;;
71042;SDS011;58696;52.134;5.500;2024-02-26T08:09:22;15.10;;;10.77;;
71042;SDS011;58696;52.134;5.500;2024-02-26T08:11:48;20.27;;;12.77;;
71042;SDS011;58696;52.134;5.500;2024-02-26T08:14:17;14.68;;;10.85;;
71042;SDS011;58696;52.134;5.500;2024-02-26T08:16:47;14.73;;;10.00;;
71042;SDS011;58696;52.134;5.500;2024-02-26T08:19:13;18.23;;;9.60;;
71042;SDS011;58696;52.134;5.500;2024-02-26T08:21:44;12.60;;;8.25;;
71042;SDS011;58696;52.134;5.500;2024-02-26T08:24:16;12.60;;;9.27;;
71042;SDS011;58696;52.134;5.500;2024-02-26T08:26:45;11.23;;;8.27;;
71042;SDS011;58696;52.134;5.500;2024-02-26T08:29:14;12.60;;;8.70;;
71042;SDS011;58696;52.134;5.500;2024-02-26T08:31:42;10.93;;;7.60;;
71042;SDS011;58696;52.134;5.500;2024-02-26T08:34:09;10.63;;;8.20;;
71042;SDS011;58696;52.134;5.500;2024-02-26T08:36:38;9.85;;;7.50;;
71042;SDS011;58696;52.134;5.500;2024-02-26T08:39:05;10.35;;;7.70;;
71042;SDS011;58696;52.134;5.500;2024-02-26T08:41:35;13.70;;;7.32;;
71042;SDS011;58696;52.134;5.500;2024-02-26T08:44:02;11.40;;;7.07;;
71042;SDS011;58696;52.134;5.500;2024-02-26T08:46:33;8.95;;;6.75;;
71042;SDS011;58696;52.134;5.500;2024-02-26T08:49:02;9.00;;;6.97;;
71042;SDS011;58696;52.134;5.500;2024-02-26T08:51:34;7.10;;;5.75;;
71042;SDS011;58696;52.134;5.500;2024-02-26T08:54:01;10.15;;;7.18;;
71042;SDS011;58696;52.134;5.500;2024-02-26T08:56:27;7.32;;;5.95;;
71042;SDS011;58696;52.134;5.500;2024-02-26T08:58:54;10.00;;;6.57;;
71042;SDS011;58696;52.134;5.500;2024-02-26T09:01:23;7.88;;;5.50;;
71042;SDS011;58696;52.134;5.500;2024-02-26T09:03:52;10.05;;;5.38;;
71042;SDS011;58696;52.134;5.500;2024-02-26T09:06:19;7.07;;;5.50;;
71042;SDS011;58696;52.134;5.500;2024-02-26T09:08:48;6.93;;;5.72;;
71042;SDS011;58696;52.134;5.500;2024-02-26T09:11:14;6.57;;;5.78;;
71042;SDS011;58696;52.134;5.500;2024-02-26T09:13:42;7.10;;;5.40;;
71042;SDS011;58696;52.134;5.500;2024-02-26T09:16:08;6.22;;;4.90;;
71042;SDS011;58696;52.134;5.500;2024-02-26T09:18:40;7.10;;;5.32;;
71042;SDS011;58696;52.134;5.500;2024-02-26T09:21:07;6.82;;;5.05;;
71042;SDS011;58696;52.134;5.500;2024-02-26T09:23:38;6.78;;;4.93;;
71042;SDS011;58696;52.134;5.500;2024-02-26T09:26:10;7.55;;;5.63;;
71042;SDS011;58696;52.134;5.500;2024-02-26T09:28:36;7.40;;;5.80;;
71042;SDS011;58696;52.134;5.500;2024-02-26T09:31:04;7.20;;;5.30;;
71042;SDS011;58696;52.134;5.500;2024-02-26T09:33:32;8.07;;;5.35;;
71042;SDS011;58696;52.134;5.500;2024-02-26T09:35:59;8.23;;;5.65;;
71042;SDS011;58696;52.134;5.500;2024-02-26T09:38:29;7.95;;;5.20;;
71042;SDS011;58696;52.134;5.500;2024-02-26T09:41:04;8.18;;;5.22;;
71042;SDS011;58696;52.134;5.500;2024-02-26T09:43:36;9.20;;;5.72;;
71042;SDS011;58696;52.134;5.500;2024-02-26T09:46:05;7.63;;;4.90;;
71042;SDS011;58696;52.134;5.500;2024-02-26T09:48:34;9.30;;;5.50;;
71042;SDS011;58696;52.134;5.500;2024-02-26T09:51:04;11.00;;;5.63;;
71042;SDS011;58696;52.134;5.500;2024-02-26T09:53:33;12.07;;;6.05;;
71042;SDS011;58696;52.134;5.500;2024-02-26T09:56:06;7.97;;;5.32;;
71042;SDS011;58696;52.134;5.500;2024-02-26T09:58:33;6.85;;;4.97;;
71042;SDS011;58696;52.134;5.500;2024-02-26T10:01:03;5.53;;;4.10;;
71042;SDS011;58696;52.134;5.500;2024-02-26T10:03:40;6.90;;;4.72;;
71042;SDS011;58696;52.134;5.500;2024-02-26T10:06:08;9.68;;;4.80;;
71042;SDS011;58696;52.134;5.500;2024-02-26T10:08:37;7.85;;;5.03;;
71042;SDS011;58696;52.134;5.500;2024-02-26T10:11:05;5.30;;;3.83;;
71042;SDS011;58696;52.134;5.500;2024-02-26T10:13:37;8.50;;;4.82;;
71042;SDS011;58696;52.134;5.500;2024-02-26T10:16:04;8.95;;;6.00;;
71042;SDS011;58696;52.134;5.500;2024-02-26T10:18:50;9.60;;;5.60;;
71042;SDS011;58696;52.134;5.500;2024-02-26T10:21:26;6.53;;;4.35;;
71042;SDS011;58696;52.134;5.500;2024-02-26T10:23:53;6.45;;;4.38;;
71042;SDS011;58696;52.134;5.500;2024-02-26T10:26:21;5.90;;;3.83;;
71042;SDS011;58696;52.134;5.500;2024-02-26T10:28:48;6.22;;;4.32;;
71042;SDS011;58696;52.134;5.500;2024-02-26T10:31:21;11.93;;;4.70;;
71042;SDS011;58696;52.134;5.500;2024-02-26T10:33:48;6.47;;;4.15;;
71042;SDS011;58696;52.134;5.500;2024-02-26T10:36:15;6.93;;;4.38;;
71042;SDS011;58696;52.134;5.500;2024-02-26T10:38:42;12.07;;;6.05;;
71042;SDS011;58696;52.134;5.500;2024-02-26T10:41:12;16.00;;;6.40;;
71042;SDS011;58696;52.134;5.500;2024-02-26T10:43:41;7.70;;;4.63;;
71042;SDS011;58696;52.134;5.500;2024-02-26T10:46:08;10.60;;;5.35;;
71042;SDS011;58696;52.134;5.500;2024-02-26T10:48:38;8.15;;;4.72;;
71042;SDS011;58696;52.134;5.500;2024-02-26T10:51:05;6.70;;;3.85;;
71042;SDS011;58696;52.134;5.500;2024-02-26T10:53:37;11.07;;;4.90;;
71042;SDS011;58696;52.134;5.500;2024-02-26T10:56:06;6.55;;;4.32;;
71042;SDS011;58696;52.134;5.500;2024-02-26T10:58:38;4.65;;;3.78;;
71042;SDS011;58696;52.134;5.500;2024-02-26T11:01:10;4.47;;;3.65;;
71042;SDS011;58696;52.134;5.500;2024-02-26T11:03:38;4.63;;;3.45;;
71042;SDS011;58696;52.134;5.500;2024-02-26T11:06:08;4.43;;;3.53;;
71042;SDS011;58696;52.134;5.500;2024-02-26T11:08:36;4.15;;;3.63;;
71042;SDS011;58696;52.134;5.500;2024-02-26T11:11:04;6.73;;;3.50;;
71042;SDS011;58696;52.134;5.500;2024-02-26T11:13:33;6.45;;;3.67;;
71042;SDS011;58696;52.134;5.500;2024-02-26T11:16:08;4.93;;;3.88;;
71042;SDS011;58696;52.134;5.500;2024-02-26T11:18:35;6.28;;;4.05;;
71042;SDS011;58696;52.134;5.500;2024-02-26T11:21:04;7.63;;;4.38;;
71042;SDS011;58696;52.134;5.500;2024-02-26T11:23:34;4.07;;;3.50;;
71042;SDS011;58696;52.134;5.500;2024-02-26T11:26:04;6.90;;;4.50;;
71042;SDS011;58696;52.134;5.500;2024-02-26T11:28:35;8.48;;;4.20;;
71042;SDS011;58696;52.134;5.500;2024-02-26T11:31:02;4.88;;;4.03;;
71042;SDS011;58696;52.134;5.500;2024-02-26T11:33:34;5.00;;;3.92;;
71042;SDS011;58696;52.134;5.500;2024-02-26T11:36:11;5.10;;;3.83;;
71042;SDS011;58696;52.134;5.500;2024-02-26T11:38:40;4.80;;;3.83;;
71042;SDS011;58696;52.134;5.500;2024-02-26T11:41:07;5.38;;;4.35;;
71042;SDS011;58696;52.134;5.500;2024-02-26T11:46:26;5.85;;;4.43;;
71042;SDS011;58696;52.134;5.500;2024-02-26T11:49:03;4.88;;;4.32;;
71042;SDS011;58696;52.134;5.500;2024-02-26T11:51:53;6.05;;;4.25;;
71042;SDS011;58696;52.134;5.500;2024-02-26T12:00:10;4.60;;;3.95;;
71042;SDS011;58696;52.134;5.500;2024-02-26T12:02:47;4.85;;;4.05;;
71042;SDS011;58696;52.134;5.500;2024-02-26T12:05:24;4.50;;;4.00;;
71042;SDS011;58696;52.134;5.500;2024-02-26T12:07:53;4.93;;;4.43;;
71042;SDS011;58696;52.134;5.500;2024-02-26T12:10:36;4.85;;;3.88;;
71042;SDS011;58696;52.134;5.500;2024-02-26T12:13:06;5.90;;;4.10;;
71042;SDS011;58696;52.134;5.500;2024-02-26T12:15:38;4.28;;;3.88;;
71042;SDS011;58696;52.134;5.500;2024-02-26T12:18:10;4.68;;;3.67;;
71042;SDS011;58696;52.134;5.500;2024-02-26T12:20:43;6.22;;;4.40;;
71042;SDS011;58696;52.134;5.500;2024-02-26T12:23:16;4.03;;;3.63;;
71042;SDS011;58696;52.134;5.500;2024-02-26T12:25:45;4.75;;;3.88;;
71042;SDS011;58696;52.134;5.500;2024-02-26T12:28:14;5.13;;;3.88;;
71042;SDS011;58696;52.134;5.500;2024-02-26T12:30:41;4.38;;;3.78;;
71042;SDS011;58696;52.134;5.500;2024-02-26T12:33:10;4.85;;;4.03;;
71042;SDS011;58696;52.134;5.500;2024-02-26T12:35:42;6.05;;;4.20;;
71042;SDS011;58696;52.134;5.500;2024-02-26T12:38:10;6.55;;;3.85;;
71042;SDS011;58696;52.134;5.500;2024-02-26T12:40:37;4.78;;;2.85;;
71042;SDS011;58696;52.134;5.500;2024-02-26T12:43:03;3.95;;;3.55;;
71042;SDS011;58696;52.134;5.500;2024-02-26T12:45:30;4.90;;;3.70;;
71042;SDS011;58696;52.134;5.500;2024-02-26T12:47:58;4.93;;;3.50;;
71042;SDS011;58696;52.134;5.500;2024-02-26T12:50:25;4.40;;;3.70;;
71042;SDS011;58696;52.134;5.500;2024-02-26T12:52:54;4.20;;;3.70;;
71042;SDS011;58696;52.134;5.500;2024-02-26T12:55:21;3.83;;;3.20;;
71042;SDS011;58696;52.134;5.500;2024-02-26T12:57:47;4.35;;;3.47;;
71042;SDS011;58696;52.134;5.500;2024-02-26T13:00:18;6.53;;;4.18;;
71042;SDS011;58696;52.134;5.500;2024-02-26T13:02:51;3.47;;;3.17;;
71042;SDS011;58696;52.134;5.500;2024-02-26T13:05:18;6.90;;;3.60;;
71042;SDS011;58696;52.134;5.500;2024-02-26T13:07:48;3.58;;;3.28;;
71042;SDS011;58696;52.134;5.500;2024-02-26T13:10:18;5.43;;;3.72;;
71042;SDS011;58696;52.134;5.500;2024-02-26T13:12:48;4.18;;;3.53;;
71042;SDS011;58696;52.134;5.500;2024-02-26T13:15:22;4.45;;;3.80;;
71042;SDS011;58696;52.134;5.500;2024-02-26T13:17:49;3.78;;;3.47;;
71042;SDS011;58696;52.134;5.500;2024-02-26T13:20:28;4.05;;;3.60;;
71042;SDS011;58696;52.134;5.500;2024-02-26T13:23:03;5.60;;;4.07;;
71042;SDS011;58696;52.134;5.500;2024-02-26T13:25:35;6.43;;;3.97;;
71042;SDS011;58696;52.134;5.500;2024-02-26T13:28:17;4.40;;;3.67;;
71042;SDS011;58696;52.134;5.500;2024-02-26T13:30:55;4.80;;;3.83;;
71042;SDS011;58696;52.134;5.500;2024-02-26T13:33:24;4.00;;;3.53;;
71042;SDS011;58696;52.134;5.500;2024-02-26T13:38:23;6.00;;;4.10;;
71042;SDS011;58696;52.134;5.500;2024-02-26T13:40:51;4.63;;;4.05;;
71042;SDS011;58696;52.134;5.500;2024-02-26T13:43:18;3.97;;;3.65;;
71042;SDS011;58696;52.134;5.500;2024-02-26T13:45:45;4.93;;;3.42;;
71042;SDS011;58696;52.134;5.500;2024-02-26T13:48:13;5.90;;;4.05;;
71042;SDS011;58696;52.134;5.500;2024-02-26T13:50:40;6.07;;;4.33;;
71042;SDS011;58696;52.134;5.500;2024-02-26T13:53:12;5.68;;;3.83;;
71042;SDS011;58696;52.134;5.500;2024-02-26T13:55:39;3.73;;;3.33;;
71042;SDS011;58696;52.134;5.500;2024-02-26T13:58:11;4.93;;;3.78;;
71042;SDS011;58696;52.134;5.500;2024-02-26T14:00:39;5.22;;;3.85;;
71042;SDS011;58696;52.134;5.500;2024-02-26T14:03:09;4.13;;;3.65;;
71042;SDS011;58696;52.134;5.500;2024-02-26T14:05:35;4.53;;;3.55;;
71042;SDS011;58696;52.134;5.500;2024-02-26T14:08:02;6.13;;;4.28;;
71042;SDS011;58696;52.134;5.500;2024-02-26T14:10:34;6.90;;;4.75;;
71042;SDS011;58696;52.134;5.500;2024-02-26T14:13:01;7.10;;;4.03;;
71042;SDS011;58696;52.134;5.500;2024-02-26T14:15:33;4.68;;;3.97;;
71042;SDS011;58696;52.134;5.500;2024-02-26T14:18:01;5.65;;;3.70;;
71042;SDS011;58696;52.134;5.500;2024-02-26T14:20:30;4.07;;;3.50;;
71042;SDS011;58696;52.134;5.500;2024-02-26T14:22:59;5.82;;;3.45;;
71042;SDS011;58696;52.134;5.500;2024-02-26T14:25:26;11.63;;;6.88;;
71042;SDS011;58696;52.134;5.500;2024-02-26T14:27:56;4.85;;;3.85;;
71042;SDS011;58696;52.134;5.500;2024-02-26T14:30:26;4.25;;;3.20;;
71042;SDS011;58696;52.134;5.500;2024-02-26T14:32:54;9.05;;;5.10;;
71042;SDS011;58696;52.134;5.500;2024-02-26T14:35:23;9.70;;;4.43;;
71042;SDS011;58696;52.134;5.500;2024-02-26T14:37:50;7.20;;;4.10;;
71042;SDS011;58696;52.134;5.500;2024-02-26T14:42:45;5.10;;;3.08;;
71042;SDS011;58696;52.134;5.500;2024-02-26T14:45:11;5.15;;;3.35;;
71042;SDS011;58696;52.134;5.500;2024-02-26T14:47:39;6.03;;;3.70;;
71042;SDS011;58696;52.134;5.500;2024-02-26T14:50:06;4.78;;;3.38;;
71042;SDS011;58696;52.134;5.500;2024-02-26T14:52:35;3.55;;;3.22;;
71042;SDS011;58696;52.134;5.500;2024-02-26T14:55:02;3.65;;;3.28;;
71042;SDS011;58696;52.134;5.500;2024-02-26T14:57:29;5.28;;;3.50;;
71042;SDS011;58696;52.134;5.500;2024-02-26T14:59:57;5.90;;;2.70;;
71042;SDS011;58696;52.134;5.500;2024-02-26T15:02:24;3.78;;;3.28;;
71042;SDS011;58696;52.134;5.500;2024-02-26T15:04:51;4.40;;;2.90;;
71042;SDS011;58696;52.134;5.500;2024-02-26T15:07:22;5.72;;;3.28;;
71042;SDS011;58696;52.134;5.500;2024-02-26T15:09:49;3.45;;;2.80;;
71042;SDS011;58696;52.134;5.500;2024-02-26T15:12:15;6.70;;;3.45;;